sensor_id;sensor_type;location;lat;lon;timestamp;P1;durP1;ratioP1;P2;durP2;ratioP2
55728;SDS011;41633;39.720;2.910;2023-06-22T00:00:50;23.75;;;7.47;;
55728;SDS011;41633;39.720;2.910;2023-06-22T00:03:17;30.27;;;8.27;;
55728;SDS011;41633;39.720;2.910;2023-06-22T00:05:44;26.75;;;7.90;;
55728;SDS011;41633;39.720;2.910;2023-06-22T00:08:10;26.75;;;7.18;;
55728;SDS011;41633;39.720;2.910;2023-06-22T00:10:36;32.35;;;8.50;;
55728;SDS011;41633;39.720;2.910;2023-06-22T00:13:03;25.55;;;7.63;;
55728;SDS011;41633;39.720;2.910;2023-06-22T00:15:29;22.50;;;6.95;;
55728;SDS011;41633;39.720;2.910;2023-06-22T00:17:56;29.23;;;8.55;;
55728;SDS011;41633;39.720;2.910;2023-06-22T00:20:22;25.60;;;7.30;;
55728;SDS011;41633;39.720;2.910;2023-06-22T00:22:53;23.60;;;7.50;;
55728;SDS011;41633;39.720;2.910;2023-06-22T00:25:19;23.40;;;6.60;;
55728;SDS011;41633;39.720;2.910;2023-06-22T00:27:45;23.48;;;7.32;;
55728;SDS011;41633;39.720;2.910;2023-06-22T00:30:11;21.70;;;6.80;;
55728;SDS011;41633;39.720;2.910;2023-06-22T00:32:37;20.77;;;6.43;;
55728;SDS011;41633;39.720;2.910;2023-06-22T00:35:03;22.20;;;7.03;;
55728;SDS011;41633;39.720;2.910;2023-06-22T00:37:30;24.17;;;6.78;;
55728;SDS011;41633;39.720;2.910;2023-06-22T00:39:56;18.08;;;6.05;;
55728;SDS011;41633;39.720;2.910;2023-06-22T00:42:22;23.35;;;7.57;;
55728;SDS011;41633;39.720;2.910;2023-06-22T00:44:48;17.50;;;5.72;;
55728;SDS011;41633;39.720;2.910;2023-06-22T00:47:15;23.38;;;7.13;;
55728;SDS011;41633;39.720;2.910;2023-06-22T00:49:42;18.75;;;6.03;;
55728;SDS011;41633;39.720;2.910;2023-06-22T00:52:08;20.88;;;6.47;;
55728;SDS011;41633;39.720;2.910;2023-06-22T00:54:41;21.27;;;6.38;;
55728;SDS011;41633;39.720;2.910;2023-06-22T00:57:13;16.33;;;6.13;;
55728;SDS011;41633;39.720;2.910;2023-06-22T00:59:44;19.73;;;5.88;;
55728;SDS011;41633;39.720;2.910;2023-06-22T01:02:10;25.23;;;7.43;;
55728;SDS011;41633;39.720;2.910;2023-06-22T01:04:37;23.77;;;7.43;;
55728;SDS011;41633;39.720;2.910;2023-06-22T01:07:13;24.40;;;7.72;;
55728;SDS011;41633;39.720;2.910;2023-06-22T01:09:44;23.83;;;6.97;;
55728;SDS011;41633;39.720;2.910;2023-06-22T01:12:11;23.88;;;7.15;;
55728;SDS011;41633;39.720;2.910;2023-06-22T01:14:45;24.33;;;7.25;;
55728;SDS011;41633;39.720;2.910;2023-06-22T01:17:13;20.33;;;6.60;;
55728;SDS011;41633;39.720;2.910;2023-06-22T01:19:45;20.73;;;7.00;;
55728;SDS011;41633;39.720;2.910;2023-06-22T01:22:21;25.10;;;7.78;;
55728;SDS011;41633;39.720;2.910;2023-06-22T01:25:00;20.88;;;7.78;;
55728;SDS011;41633;39.720;2.910;2023-06-22T01:27:39;22.92;;;7.63;;
55728;SDS011;41633;39.720;2.910;2023-06-22T01:30:06;22.63;;;7.45;;
55728;SDS011;41633;39.720;2.910;2023-06-22T01:32:36;25.40;;;7.70;;
55728;SDS011;41633;39.720;2.910;2023-06-22T01:35:03;24.77;;;7.28;;
55728;SDS011;41633;39.720;2.910;2023-06-22T01:37:30;27.45;;;8.75;;
55728;SDS011;41633;39.720;2.910;2023-06-22T01:39:57;22.33;;;8.25;;
55728;SDS011;41633;39.720;2.910;2023-06-22T01:42:24;27.75;;;8.57;;
55728;SDS011;41633;39.720;2.910;2023-06-22T01:44:51;23.45;;;8.27;;
55728;SDS011;41633;39.720;2.910;2023-06-22T01:47:18;22.52;;;7.55;;
55728;SDS011;41633;39.720;2.910;2023-06-22T01:49:44;22.52;;;7.82;;
55728;SDS011;41633;39.720;2.910;2023-06-22T01:52:11;26.38;;;7.35;;
55728;SDS011;41633;39.720;2.910;2023-06-22T01:54:39;28.67;;;7.57;;
55728;SDS011;41633;39.720;2.910;2023-06-22T01:57:05;20.92;;;7.47;;
55728;SDS011;41633;39.720;2.910;2023-06-22T01:59:32;25.38;;;7.75;;
55728;SDS011;41633;39.720;2.910;2023-06-22T02:02:03;22.92;;;8.10;;
55728;SDS011;41633;39.720;2.910;2023-06-22T02:07:15;27.08;;;7.90;;
55728;SDS011;41633;39.720;2.910;2023-06-22T02:09:43;23.83;;;7.30;;
55728;SDS011;41633;39.720;2.910;2023-06-22T02:12:10;21.02;;;7.50;;
55728;SDS011;41633;39.720;2.910;2023-06-22T02:14:37;20.63;;;7.90;;
55728;SDS011;41633;39.720;2.910;2023-06-22T02:17:04;27.83;;;8.25;;
55728;SDS011;41633;39.720;2.910;2023-06-22T02:19:35;24.88;;;7.95;;
55728;SDS011;41633;39.720;2.910;2023-06-22T02:22:01;21.90;;;7.22;;
55728;SDS011;41633;39.720;2.910;2023-06-22T02:24:27;21.92;;;7.75;;
55728;SDS011;41633;39.720;2.910;2023-06-22T02:26:57;26.85;;;7.47;;
55728;SDS011;41633;39.720;2.910;2023-06-22T02:29:23;23.80;;;7.03;;
55728;SDS011;41633;39.720;2.910;2023-06-22T02:31:50;24.13;;;7.38;;
55728;SDS011;41633;39.720;2.910;2023-06-22T02:34:16;24.70;;;7.93;;
55728;SDS011;41633;39.720;2.910;2023-06-22T02:36:46;27.15;;;7.43;;
55728;SDS011;41633;39.720;2.910;2023-06-22T02:39:22;23.13;;;7.43;;
55728;SDS011;41633;39.720;2.910;2023-06-22T02:41:52;18.95;;;6.03;;
55728;SDS011;41633;39.720;2.910;2023-06-22T02:44:19;19.02;;;6.70;;
55728;SDS011;41633;39.720;2.910;2023-06-22T02:46:46;22.90;;;6.40;;
55728;SDS011;41633;39.720;2.910;2023-06-22T02:49:12;20.70;;;6.60;;
55728;SDS011;41633;39.720;2.910;2023-06-22T02:51:41;18.98;;;6.85;;
55728;SDS011;41633;39.720;2.910;2023-06-22T02:54:07;22.02;;;7.20;;
55728;SDS011;41633;39.720;2.910;2023-06-22T02:56:33;23.90;;;6.97;;
55728;SDS011;41633;39.720;2.910;2023-06-22T02:59:01;20.83;;;6.32;;
55728;SDS011;41633;39.720;2.910;2023-06-22T03:01:28;22.08;;;6.40;;
55728;SDS011;41633;39.720;2.910;2023-06-22T03:03:55;19.67;;;6.90;;
55728;SDS011;41633;39.720;2.910;2023-06-22T03:06:21;20.73;;;6.60;;
55728;SDS011;41633;39.720;2.910;2023-06-22T03:08:51;20.88;;;6.53;;
55728;SDS011;41633;39.720;2.910;2023-06-22T03:11:17;22.88;;;7.05;;
55728;SDS011;41633;39.720;2.910;2023-06-22T03:13:43;23.02;;;6.93;;
55728;SDS011;41633;39.720;2.910;2023-06-22T03:16:11;18.63;;;6.55;;
55728;SDS011;41633;39.720;2.910;2023-06-22T03:18:37;21.20;;;6.90;;
55728;SDS011;41633;39.720;2.910;2023-06-22T03:21:03;27.85;;;7.25;;
55728;SDS011;41633;39.720;2.910;2023-06-22T03:23:30;22.55;;;6.50;;
55728;SDS011;41633;39.720;2.910;2023-06-22T03:25:56;25.45;;;6.25;;
55728;SDS011;41633;39.720;2.910;2023-06-22T03:28:22;24.15;;;7.55;;
55728;SDS011;41633;39.720;2.910;2023-06-22T03:30:49;24.88;;;6.95;;
55728;SDS011;41633;39.720;2.910;2023-06-22T03:33:15;20.10;;;6.55;;
55728;SDS011;41633;39.720;2.910;2023-06-22T03:35:41;28.08;;;7.40;;
55728;SDS011;41633;39.720;2.910;2023-06-22T03:38:07;24.85;;;6.78;;
55728;SDS011;41633;39.720;2.910;2023-06-22T03:40:33;21.45;;;6.85;;
55728;SDS011;41633;39.720;2.910;2023-06-22T03:42:59;22.67;;;6.25;;
55728;SDS011;41633;39.720;2.910;2023-06-22T03:45:25;19.50;;;6.75;;
55728;SDS011;41633;39.720;2.910;2023-06-22T03:47:52;21.55;;;7.15;;
55728;SDS011;41633;39.720;2.910;2023-06-22T03:50:18;25.83;;;7.30;;
55728;SDS011;41633;39.720;2.910;2023-06-22T03:52:45;25.17;;;7.72;;
55728;SDS011;41633;39.720;2.910;2023-06-22T03:55:12;25.98;;;8.15;;
55728;SDS011;41633;39.720;2.910;2023-06-22T03:57:38;21.23;;;6.90;;
55728;SDS011;41633;39.720;2.910;2023-06-22T04:00:04;24.00;;;7.80;;
55728;SDS011;41633;39.720;2.910;2023-06-22T04:02:31;23.83;;;7.40;;
55728;SDS011;41633;39.720;2.910;2023-06-22T04:04:57;27.08;;;8.18;;
55728;SDS011;41633;39.720;2.910;2023-06-22T04:07:23;27.52;;;7.00;;
55728;SDS011;41633;39.720;2.910;2023-06-22T04:09:50;19.27;;;7.03;;
55728;SDS011;41633;39.720;2.910;2023-06-22T04:12:16;25.55;;;7.55;;
55728;SDS011;41633;39.720;2.910;2023-06-22T04:14:42;21.42;;;7.07;;
55728;SDS011;41633;39.720;2.910;2023-06-22T04:17:08;20.50;;;7.38;;
55728;SDS011;41633;39.720;2.910;2023-06-22T04:19:34;24.92;;;7.10;;
55728;SDS011;41633;39.720;2.910;2023-06-22T04:22:00;22.88;;;7.45;;
55728;SDS011;41633;39.720;2.910;2023-06-22T04:24:27;23.60;;;7.22;;
55728;SDS011;41633;39.720;2.910;2023-06-22T04:26:53;26.42;;;7.95;;
55728;SDS011;41633;39.720;2.910;2023-06-22T04:29:20;16.48;;;5.57;;
55728;SDS011;41633;39.720;2.910;2023-06-22T04:31:49;20.98;;;7.10;;
55728;SDS011;41633;39.720;2.910;2023-06-22T04:34:16;19.33;;;6.53;;
55728;SDS011;41633;39.720;2.910;2023-06-22T04:36:42;26.27;;;7.75;;
55728;SDS011;41633;39.720;2.910;2023-06-22T04:39:10;22.67;;;7.22;;
55728;SDS011;41633;39.720;2.910;2023-06-22T04:41:37;26.50;;;8.18;;
55728;SDS011;41633;39.720;2.910;2023-06-22T04:44:10;20.85;;;7.57;;
55728;SDS011;41633;39.720;2.910;2023-06-22T04:46:36;19.63;;;6.60;;
55728;SDS011;41633;39.720;2.910;2023-06-22T04:49:06;29.83;;;7.72;;
55728;SDS011;41633;39.720;2.910;2023-06-22T04:51:43;23.73;;;7.00;;
55728;SDS011;41633;39.720;2.910;2023-06-22T04:54:10;23.13;;;7.43;;
55728;SDS011;41633;39.720;2.910;2023-06-22T04:56:36;26.33;;;7.55;;
55728;SDS011;41633;39.720;2.910;2023-06-22T04:59:02;25.10;;;7.82;;
55728;SDS011;41633;39.720;2.910;2023-06-22T05:01:29;21.38;;;7.18;;
55728;SDS011;41633;39.720;2.910;2023-06-22T05:04:00;27.65;;;8.30;;
55728;SDS011;41633;39.720;2.910;2023-06-22T05:06:27;23.67;;;8.15;;
55728;SDS011;41633;39.720;2.910;2023-06-22T05:08:54;27.20;;;8.07;;
55728;SDS011;41633;39.720;2.910;2023-06-22T05:11:26;22.83;;;7.28;;
55728;SDS011;41633;39.720;2.910;2023-06-22T05:13:53;23.90;;;7.43;;
55728;SDS011;41633;39.720;2.910;2023-06-22T05:16:20;22.02;;;7.32;;
55728;SDS011;41633;39.720;2.910;2023-06-22T05:18:50;29.02;;;7.93;;
55728;SDS011;41633;39.720;2.910;2023-06-22T05:21:16;23.95;;;7.63;;
55728;SDS011;41633;39.720;2.910;2023-06-22T05:23:43;27.30;;;7.50;;
55728;SDS011;41633;39.720;2.910;2023-06-22T05:26:09;24.33;;;7.53;;
55728;SDS011;41633;39.720;2.910;2023-06-22T05:28:35;23.50;;;7.18;;
55728;SDS011;41633;39.720;2.910;2023-06-22T05:31:02;26.15;;;7.13;;
55728;SDS011;41633;39.720;2.910;2023-06-22T05:33:29;31.73;;;8.23;;
55728;SDS011;41633;39.720;2.910;2023-06-22T05:35:55;28.85;;;7.85;;
55728;SDS011;41633;39.720;2.910;2023-06-22T05:38:21;26.35;;;7.80;;
55728;SDS011;41633;39.720;2.910;2023-06-22T05:40:47;22.92;;;7.80;;
55728;SDS011;41633;39.720;2.910;2023-06-22T05:43:13;27.17;;;8.25;;
55728;SDS011;41633;39.720;2.910;2023-06-22T05:45:39;26.08;;;7.57;;
55728;SDS011;41633;39.720;2.910;2023-06-22T05:48:05;22.00;;;6.95;;
55728;SDS011;41633;39.720;2.910;2023-06-22T05:50:32;23.08;;;8.15;;
55728;SDS011;41633;39.720;2.910;2023-06-22T05:52:58;22.00;;;7.43;;
55728;SDS011;41633;39.720;2.910;2023-06-22T05:55:24;23.63;;;7.78;;
55728;SDS011;41633;39.720;2.910;2023-06-22T05:57:50;29.45;;;8.93;;
55728;SDS011;41633;39.720;2.910;2023-06-22T06:00:16;29.92;;;9.43;;
55728;SDS011;41633;39.720;2.910;2023-06-22T06:02:43;20.63;;;7.95;;
55728;SDS011;41633;39.720;2.910;2023-06-22T06:05:12;23.20;;;9.45;;
55728;SDS011;41633;39.720;2.910;2023-06-22T06:07:39;25.13;;;9.75;;
55728;SDS011;41633;39.720;2.910;2023-06-22T06:10:05;25.63;;;8.55;;
55728;SDS011;41633;39.720;2.910;2023-06-22T06:12:32;26.10;;;8.90;;
55728;SDS011;41633;39.720;2.910;2023-06-22T06:14:58;30.77;;;11.32;;
55728;SDS011;41633;39.720;2.910;2023-06-22T06:17:24;26.80;;;10.90;;
55728;SDS011;41633;39.720;2.910;2023-06-22T06:19:50;28.27;;;9.10;;
55728;SDS011;41633;39.720;2.910;2023-06-22T06:22:17;29.60;;;9.68;;
55728;SDS011;41633;39.720;2.910;2023-06-22T06:24:45;27.60;;;8.00;;
55728;SDS011;41633;39.720;2.910;2023-06-22T06:27:12;30.52;;;8.77;;
55728;SDS011;41633;39.720;2.910;2023-06-22T06:29:39;26.45;;;10.32;;
55728;SDS011;41633;39.720;2.910;2023-06-22T06:32:05;30.00;;;9.88;;
55728;SDS011;41633;39.720;2.910;2023-06-22T06:34:31;27.80;;;8.82;;
55728;SDS011;41633;39.720;2.910;2023-06-22T06:36:57;21.35;;;7.90;;
55728;SDS011;41633;39.720;2.910;2023-06-22T06:39:23;26.00;;;8.60;;
55728;SDS011;41633;39.720;2.910;2023-06-22T06:41:50;24.88;;;7.82;;
55728;SDS011;41633;39.720;2.910;2023-06-22T06:44:16;27.48;;;8.68;;
55728;SDS011;41633;39.720;2.910;2023-06-22T06:46:42;26.15;;;7.45;;
55728;SDS011;41633;39.720;2.910;2023-06-22T06:49:08;24.17;;;7.40;;
55728;SDS011;41633;39.720;2.910;2023-06-22T06:51:35;21.15;;;7.53;;
55728;SDS011;41633;39.720;2.910;2023-06-22T06:54:01;27.10;;;8.07;;
55728;SDS011;41633;39.720;2.910;2023-06-22T06:56:28;24.23;;;8.10;;
55728;SDS011;41633;39.720;2.910;2023-06-22T06:58:55;25.95;;;7.65;;
55728;SDS011;41633;39.720;2.910;2023-06-22T07:01:21;21.67;;;7.25;;
55728;SDS011;41633;39.720;2.910;2023-06-22T07:03:47;27.30;;;8.07;;
55728;SDS011;41633;39.720;2.910;2023-06-22T07:06:13;33.10;;;8.15;;
55728;SDS011;41633;39.720;2.910;2023-06-22T07:08:41;24.50;;;8.57;;
55728;SDS011;41633;39.720;2.910;2023-06-22T07:11:08;20.17;;;7.45;;
55728;SDS011;41633;39.720;2.910;2023-06-22T07:13:34;23.42;;;7.30;;
55728;SDS011;41633;39.720;2.910;2023-06-22T07:16:00;21.35;;;6.80;;
55728;SDS011;41633;39.720;2.910;2023-06-22T07:18:26;23.85;;;7.70;;
55728;SDS011;41633;39.720;2.910;2023-06-22T07:20:52;24.15;;;7.20;;
55728;SDS011;41633;39.720;2.910;2023-06-22T07:23:19;25.45;;;7.30;;
55728;SDS011;41633;39.720;2.910;2023-06-22T07:25:45;20.35;;;6.20;;
55728;SDS011;41633;39.720;2.910;2023-06-22T07:28:11;22.38;;;6.63;;
55728;SDS011;41633;39.720;2.910;2023-06-22T07:30:37;22.25;;;6.70;;
55728;SDS011;41633;39.720;2.910;2023-06-22T07:33:03;22.70;;;7.30;;
55728;SDS011;41633;39.720;2.910;2023-06-22T07:35:33;24.52;;;7.07;;
55728;SDS011;41633;39.720;2.910;2023-06-22T07:37:59;21.80;;;6.95;;
55728;SDS011;41633;39.720;2.910;2023-06-22T07:40:25;25.13;;;7.18;;
55728;SDS011;41633;39.720;2.910;2023-06-22T07:42:52;20.00;;;6.63;;
55728;SDS011;41633;39.720;2.910;2023-06-22T07:45:18;24.50;;;7.70;;
55728;SDS011;41633;39.720;2.910;2023-06-22T07:47:44;20.02;;;6.60;;
55728;SDS011;41633;39.720;2.910;2023-06-22T07:50:11;20.63;;;6.80;;
55728;SDS011;41633;39.720;2.910;2023-06-22T07:52:37;21.00;;;6.75;;
55728;SDS011;41633;39.720;2.910;2023-06-22T07:55:03;18.50;;;5.82;;
55728;SDS011;41633;39.720;2.910;2023-06-22T07:57:30;20.98;;;6.70;;
55728;SDS011;41633;39.720;2.910;2023-06-22T07:59:59;20.90;;;6.35;;
55728;SDS011;41633;39.720;2.910;2023-06-22T08:02:26;21.48;;;6.80;;
55728;SDS011;41633;39.720;2.910;2023-06-22T08:04:52;19.92;;;6.00;;
55728;SDS011;41633;39.720;2.910;2023-06-22T08:07:18;18.00;;;6.22;;
55728;SDS011;41633;39.720;2.910;2023-06-22T08:09:48;22.90;;;6.72;;
55728;SDS011;41633;39.720;2.910;2023-06-22T08:12:15;20.67;;;6.25;;
55728;SDS011;41633;39.720;2.910;2023-06-22T08:14:42;22.35;;;6.75;;
55728;SDS011;41633;39.720;2.910;2023-06-22T08:17:11;18.50;;;6.40;;
55728;SDS011;41633;39.720;2.910;2023-06-22T08:19:39;16.52;;;5.57;;
55728;SDS011;41633;39.720;2.910;2023-06-22T08:22:05;21.85;;;7.03;;
55728;SDS011;41633;39.720;2.910;2023-06-22T08:24:31;16.27;;;5.88;;
55728;SDS011;41633;39.720;2.910;2023-06-22T08:26:57;21.15;;;6.32;;
55728;SDS011;41633;39.720;2.910;2023-06-22T08:29:23;23.35;;;7.00;;
55728;SDS011;41633;39.720;2.910;2023-06-22T08:31:50;16.00;;;5.30;;
55728;SDS011;41633;39.720;2.910;2023-06-22T08:34:16;15.98;;;5.18;;
55728;SDS011;41633;39.720;2.910;2023-06-22T08:36:47;16.35;;;5.07;;
55728;SDS011;41633;39.720;2.910;2023-06-22T08:39:16;20.38;;;6.00;;
55728;SDS011;41633;39.720;2.910;2023-06-22T08:41:42;23.85;;;6.35;;
55728;SDS011;41633;39.720;2.910;2023-06-22T08:44:10;21.02;;;6.00;;
55728;SDS011;41633;39.720;2.910;2023-06-22T08:46:36;15.93;;;5.22;;
55728;SDS011;41633;39.720;2.910;2023-06-22T08:49:04;17.42;;;6.18;;
55728;SDS011;41633;39.720;2.910;2023-06-22T08:51:30;19.48;;;5.57;;
55728;SDS011;41633;39.720;2.910;2023-06-22T08:53:56;18.48;;;6.22;;
55728;SDS011;41633;39.720;2.910;2023-06-22T08:56:22;14.57;;;4.97;;
55728;SDS011;41633;39.720;2.910;2023-06-22T08:58:48;22.85;;;6.25;;
55728;SDS011;41633;39.720;2.910;2023-06-22T09:01:15;19.83;;;5.68;;
55728;SDS011;41633;39.720;2.910;2023-06-22T09:03:41;22.13;;;5.65;;
55728;SDS011;41633;39.720;2.910;2023-06-22T09:06:07;20.33;;;5.65;;
55728;SDS011;41633;39.720;2.910;2023-06-22T09:08:39;21.33;;;6.32;;
55728;SDS011;41633;39.720;2.910;2023-06-22T09:11:05;20.17;;;5.82;;
55728;SDS011;41633;39.720;2.910;2023-06-22T09:13:32;16.10;;;5.40;;
55728;SDS011;41633;39.720;2.910;2023-06-22T09:15:59;14.68;;;4.93;;
55728;SDS011;41633;39.720;2.910;2023-06-22T09:18:25;14.45;;;4.95;;
55728;SDS011;41633;39.720;2.910;2023-06-22T09:20:52;20.27;;;5.63;;
55728;SDS011;41633;39.720;2.910;2023-06-22T09:23:18;14.95;;;5.07;;
55728;SDS011;41633;39.720;2.910;2023-06-22T09:25:44;15.75;;;5.07;;
55728;SDS011;41633;39.720;2.910;2023-06-22T09:28:12;17.65;;;5.05;;
55728;SDS011;41633;39.720;2.910;2023-06-22T09:30:39;17.90;;;5.57;;
55728;SDS011;41633;39.720;2.910;2023-06-22T09:33:05;17.85;;;5.97;;
55728;SDS011;41633;39.720;2.910;2023-06-22T09:35:31;16.15;;;5.20;;
55728;SDS011;41633;39.720;2.910;2023-06-22T09:37:57;15.20;;;5.50;;
55728;SDS011;41633;39.720;2.910;2023-06-22T09:40:23;13.52;;;5.22;;
55728;SDS011;41633;39.720;2.910;2023-06-22T09:42:49;18.35;;;5.80;;
55728;SDS011;41633;39.720;2.910;2023-06-22T09:45:16;25.92;;;6.57;;
55728;SDS011;41633;39.720;2.910;2023-06-22T09:47:42;21.35;;;5.78;;
55728;SDS011;41633;39.720;2.910;2023-06-22T09:50:08;18.02;;;5.35;;
55728;SDS011;41633;39.720;2.910;2023-06-22T09:52:34;19.25;;;5.65;;
55728;SDS011;41633;39.720;2.910;2023-06-22T09:55:01;15.23;;;5.70;;
55728;SDS011;41633;39.720;2.910;2023-06-22T09:57:28;18.02;;;5.53;;
55728;SDS011;41633;39.720;2.910;2023-06-22T09:59:55;17.20;;;5.05;;
55728;SDS011;41633;39.720;2.910;2023-06-22T10:02:21;20.98;;;5.55;;
55728;SDS011;41633;39.720;2.910;2023-06-22T10:04:47;19.33;;;5.75;;
55728;SDS011;41633;39.720;2.910;2023-06-22T10:07:13;16.27;;;5.65;;
55728;SDS011;41633;39.720;2.910;2023-06-22T10:09:40;16.58;;;5.13;;
55728;SDS011;41633;39.720;2.910;2023-06-22T10:12:06;16.90;;;5.50;;
55728;SDS011;41633;39.720;2.910;2023-06-22T10:14:32;16.08;;;5.70;;
55728;SDS011;41633;39.720;2.910;2023-06-22T10:16:59;16.27;;;5.22;;
55728;SDS011;41633;39.720;2.910;2023-06-22T10:19:25;17.50;;;5.20;;
55728;SDS011;41633;39.720;2.910;2023-06-22T10:21:51;18.95;;;5.68;;
55728;SDS011;41633;39.720;2.910;2023-06-22T10:24:17;14.70;;;5.00;;
55728;SDS011;41633;39.720;2.910;2023-06-22T10:26:43;19.10;;;5.70;;
55728;SDS011;41633;39.720;2.910;2023-06-22T10:29:10;15.90;;;5.20;;
55728;SDS011;41633;39.720;2.910;2023-06-22T10:31:36;15.68;;;5.28;;
55728;SDS011;41633;39.720;2.910;2023-06-22T10:34:02;15.98;;;5.13;;
55728;SDS011;41633;39.720;2.910;2023-06-22T10:36:28;15.35;;;4.85;;
55728;SDS011;41633;39.720;2.910;2023-06-22T10:38:54;14.70;;;4.65;;
55728;SDS011;41633;39.720;2.910;2023-06-22T10:41:21;14.13;;;5.35;;
55728;SDS011;41633;39.720;2.910;2023-06-22T10:43:47;19.13;;;5.50;;
55728;SDS011;41633;39.720;2.910;2023-06-22T10:46:13;16.10;;;5.47;;
55728;SDS011;41633;39.720;2.910;2023-06-22T10:48:39;16.85;;;5.35;;
55728;SDS011;41633;39.720;2.910;2023-06-22T10:51:05;17.38;;;5.20;;
55728;SDS011;41633;39.720;2.910;2023-06-22T10:53:31;15.15;;;5.10;;
55728;SDS011;41633;39.720;2.910;2023-06-22T10:55:57;16.63;;;5.30;;
55728;SDS011;41633;39.720;2.910;2023-06-22T10:58:24;15.82;;;5.28;;
55728;SDS011;41633;39.720;2.910;2023-06-22T11:00:50;15.75;;;5.60;;
55728;SDS011;41633;39.720;2.910;2023-06-22T11:03:16;17.73;;;5.88;;
55728;SDS011;41633;39.720;2.910;2023-06-22T11:05:42;16.42;;;5.20;;
55728;SDS011;41633;39.720;2.910;2023-06-22T11:08:08;20.13;;;5.72;;
55728;SDS011;41633;39.720;2.910;2023-06-22T11:10:35;15.77;;;5.40;;
55728;SDS011;41633;39.720;2.910;2023-06-22T11:15:38;16.45;;;4.93;;
55728;SDS011;41633;39.720;2.910;2023-06-22T11:18:04;17.00;;;5.60;;
55728;SDS011;41633;39.720;2.910;2023-06-22T11:20:32;13.20;;;4.88;;
55728;SDS011;41633;39.720;2.910;2023-06-22T11:22:59;15.80;;;4.90;;
55728;SDS011;41633;39.720;2.910;2023-06-22T11:25:25;16.63;;;5.25;;
55728;SDS011;41633;39.720;2.910;2023-06-22T11:27:52;18.63;;;4.88;;
55728;SDS011;41633;39.720;2.910;2023-06-22T11:30:18;18.67;;;4.85;;
55728;SDS011;41633;39.720;2.910;2023-06-22T11:32:45;14.65;;;4.75;;
55728;SDS011;41633;39.720;2.910;2023-06-22T11:35:11;12.77;;;4.35;;
55728;SDS011;41633;39.720;2.910;2023-06-22T11:37:37;13.90;;;4.72;;
55728;SDS011;41633;39.720;2.910;2023-06-22T11:40:03;15.55;;;4.50;;
55728;SDS011;41633;39.720;2.910;2023-06-22T11:52:53;12.52;;;3.85;;
55728;SDS011;41633;39.720;2.910;2023-06-22T11:55:19;11.75;;;3.65;;
55728;SDS011;41633;39.720;2.910;2023-06-22T11:57:53;12.40;;;4.00;;
55728;SDS011;41633;39.720;2.910;2023-06-22T12:00:20;16.08;;;3.83;;
55728;SDS011;41633;39.720;2.910;2023-06-22T12:02:48;13.38;;;4.32;;
55728;SDS011;41633;39.720;2.910;2023-06-22T12:05:16;15.35;;;4.22;;
55728;SDS011;41633;39.720;2.910;2023-06-22T12:07:42;12.35;;;4.25;;
55728;SDS011;41633;39.720;2.910;2023-06-22T12:10:08;13.35;;;4.40;;
55728;SDS011;41633;39.720;2.910;2023-06-22T12:12:35;13.15;;;3.92;;
55728;SDS011;41633;39.720;2.910;2023-06-22T12:15:01;13.48;;;3.80;;
55728;SDS011;41633;39.720;2.910;2023-06-22T12:17:31;11.00;;;3.67;;
55728;SDS011;41633;39.720;2.910;2023-06-22T12:19:58;11.05;;;3.60;;
55728;SDS011;41633;39.720;2.910;2023-06-22T12:22:24;8.57;;;2.80;;
55728;SDS011;41633;39.720;2.910;2023-06-22T12:24:50;11.82;;;3.30;;
55728;SDS011;41633;39.720;2.910;2023-06-22T12:27:17;11.40;;;3.33;;
55728;SDS011;41633;39.720;2.910;2023-06-22T12:29:45;10.30;;;3.20;;
55728;SDS011;41633;39.720;2.910;2023-06-22T12:32:11;11.68;;;3.72;;
55728;SDS011;41633;39.720;2.910;2023-06-22T12:34:39;12.55;;;3.45;;
55728;SDS011;41633;39.720;2.910;2023-06-22T12:37:05;10.38;;;3.40;;
55728;SDS011;41633;39.720;2.910;2023-06-22T12:39:32;11.15;;;3.75;;
55728;SDS011;41633;39.720;2.910;2023-06-22T12:41:58;10.68;;;3.58;;
55728;SDS011;41633;39.720;2.910;2023-06-22T12:44:24;13.00;;;4.03;;
55728;SDS011;41633;39.720;2.910;2023-06-22T12:46:50;17.83;;;4.15;;
55728;SDS011;41633;39.720;2.910;2023-06-22T12:49:16;10.38;;;3.53;;
55728;SDS011;41633;39.720;2.910;2023-06-22T12:51:43;11.27;;;3.58;;
55728;SDS011;41633;39.720;2.910;2023-06-22T12:54:09;12.63;;;4.07;;
55728;SDS011;41633;39.720;2.910;2023-06-22T12:56:36;12.00;;;4.00;;
55728;SDS011;41633;39.720;2.910;2023-06-22T12:59:02;15.45;;;4.03;;
55728;SDS011;41633;39.720;2.910;2023-06-22T13:01:29;12.75;;;4.10;;
55728;SDS011;41633;39.720;2.910;2023-06-22T13:03:55;10.93;;;3.47;;
55728;SDS011;41633;39.720;2.910;2023-06-22T13:06:22;12.57;;;3.63;;
55728;SDS011;41633;39.720;2.910;2023-06-22T13:08:48;10.05;;;3.50;;
55728;SDS011;41633;39.720;2.910;2023-06-22T13:11:14;13.43;;;3.67;;
55728;SDS011;41633;39.720;2.910;2023-06-22T13:13:40;10.60;;;4.00;;
55728;SDS011;41633;39.720;2.910;2023-06-22T13:16:07;14.45;;;3.80;;
55728;SDS011;41633;39.720;2.910;2023-06-22T13:18:33;11.30;;;3.78;;
55728;SDS011;41633;39.720;2.910;2023-06-22T13:21:01;10.98;;;3.67;;
55728;SDS011;41633;39.720;2.910;2023-06-22T13:23:27;10.52;;;3.53;;
55728;SDS011;41633;39.720;2.910;2023-06-22T13:25:53;11.07;;;3.28;;
55728;SDS011;41633;39.720;2.910;2023-06-22T13:28:19;11.27;;;3.30;;
55728;SDS011;41633;39.720;2.910;2023-06-22T13:30:46;13.50;;;3.50;;
55728;SDS011;41633;39.720;2.910;2023-06-22T13:33:15;12.93;;;3.65;;
55728;SDS011;41633;39.720;2.910;2023-06-22T13:35:41;10.60;;;3.20;;
55728;SDS011;41633;39.720;2.910;2023-06-22T13:38:11;12.45;;;3.80;;
55728;SDS011;41633;39.720;2.910;2023-06-22T13:40:37;12.15;;;3.78;;
55728;SDS011;41633;39.720;2.910;2023-06-22T13:43:04;12.77;;;3.63;;
55728;SDS011;41633;39.720;2.910;2023-06-22T13:45:30;11.05;;;3.50;;
55728;SDS011;41633;39.720;2.910;2023-06-22T13:47:56;12.65;;;3.60;;
55728;SDS011;41633;39.720;2.910;2023-06-22T13:50:23;11.95;;;4.10;;
55728;SDS011;41633;39.720;2.910;2023-06-22T13:52:49;15.85;;;4.00;;
55728;SDS011;41633;39.720;2.910;2023-06-22T13:55:15;12.18;;;3.70;;
55728;SDS011;41633;39.720;2.910;2023-06-22T13:57:42;10.63;;;3.90;;
55728;SDS011;41633;39.720;2.910;2023-06-22T14:00:08;12.13;;;4.03;;
55728;SDS011;41633;39.720;2.910;2023-06-22T14:02:37;11.68;;;3.67;;
55728;SDS011;41633;39.720;2.910;2023-06-22T14:05:04;13.23;;;4.13;;
55728;SDS011;41633;39.720;2.910;2023-06-22T14:07:31;13.40;;;3.80;;
55728;SDS011;41633;39.720;2.910;2023-06-22T14:09:57;10.57;;;3.55;;
55728;SDS011;41633;39.720;2.910;2023-06-22T14:12:24;11.93;;;4.10;;
55728;SDS011;41633;39.720;2.910;2023-06-22T14:14:50;16.98;;;4.15;;
55728;SDS011;41633;39.720;2.910;2023-06-22T14:17:16;11.20;;;3.60;;
55728;SDS011;41633;39.720;2.910;2023-06-22T14:19:42;15.27;;;3.95;;
55728;SDS011;41633;39.720;2.910;2023-06-22T14:22:08;11.85;;;4.00;;
55728;SDS011;41633;39.720;2.910;2023-06-22T14:24:34;13.80;;;4.05;;
55728;SDS011;41633;39.720;2.910;2023-06-22T14:27:01;12.48;;;3.97;;
55728;SDS011;41633;39.720;2.910;2023-06-22T14:29:28;11.85;;;3.97;;
55728;SDS011;41633;39.720;2.910;2023-06-22T14:31:54;12.63;;;3.80;;
55728;SDS011;41633;39.720;2.910;2023-06-22T14:34:20;11.15;;;3.83;;
55728;SDS011;41633;39.720;2.910;2023-06-22T14:36:46;14.57;;;4.28;;
55728;SDS011;41633;39.720;2.910;2023-06-22T14:39:13;10.60;;;3.88;;
55728;SDS011;41633;39.720;2.910;2023-06-22T14:41:39;13.40;;;4.13;;
55728;SDS011;41633;39.720;2.910;2023-06-22T14:44:05;10.68;;;3.30;;
55728;SDS011;41633;39.720;2.910;2023-06-22T14:46:31;10.43;;;3.83;;